createdAt,value
2022-11-13T17:18:58.899Z,61.67
2022-11-13T17:20:19.629Z,61.76
2022-11-13T17:21:44.256Z,61.76
2022-11-13T17:23:04.910Z,62.09
2022-11-13T17:24:25.280Z,62.13
2022-11-13T17:25:47.085Z,61.93
2022-11-13T17:27:09.068Z,62.04
2022-11-13T17:28:30.551Z,61.74
2022-11-13T17:29:50.958Z,61.80
2022-11-13T17:31:12.258Z,62.01
2022-11-13T17:32:32.683Z,62.00
2022-11-13T17:33:54.636Z,62.04
2022-11-13T17:35:15.234Z,62.30
2022-11-13T17:36:36.426Z,62.50
2022-11-13T17:37:56.756Z,62.67
2022-11-13T17:39:17.198Z,62.50
2022-11-13T17:40:37.553Z,62.60
2022-11-13T17:41:57.817Z,62.76
2022-11-13T17:43:18.256Z,62.82
2022-11-13T17:44:38.321Z,62.91
2022-11-13T17:45:59.579Z,62.94
2022-11-13T17:47:20.459Z,63.08
2022-11-13T17:48:41.025Z,63.20
2022-11-13T17:50:07.048Z,63.25
2022-11-13T17:51:28.040Z,63.72
2022-11-13T17:52:48.758Z,63.87
2022-11-13T17:54:09.180Z,63.99
2022-11-13T17:55:29.845Z,63.93
2022-11-13T17:56:50.390Z,63.91
2022-11-13T17:58:11.000Z,64.03
2022-11-13T17:59:31.141Z,64.19
2022-11-13T18:00:51.955Z,64.51
2022-11-13T18:02:12.190Z,64.63
2022-11-13T18:03:33.839Z,64.93
2022-11-13T18:04:57.695Z,64.98
2022-11-13T18:06:20.177Z,65.13
2022-11-13T18:07:41.022Z,65.20
2022-11-13T18:09:01.713Z,65.28
2022-11-13T18:10:22.144Z,65.60
2022-11-13T18:11:42.554Z,65.70
2022-11-13T18:13:04.506Z,65.66
2022-11-13T18:14:25.323Z,66.07
2022-11-13T18:15:45.487Z,66.45
2022-11-13T18:17:05.739Z,66.48
2022-11-13T18:18:26.515Z,66.67
2022-11-13T18:19:46.842Z,66.78
2022-11-13T18:21:25.040Z,67.08
2022-11-13T18:22:45.459Z,67.24
2022-11-13T18:24:12.276Z,67.16
2022-11-13T18:25:39.447Z,67.44
2022-11-13T18:27:00.187Z,67.75
2022-11-13T18:28:20.887Z,67.70
2022-11-13T18:29:41.358Z,67.90
2022-11-13T18:31:09.423Z,67.71
2022-11-13T18:32:29.894Z,68.19
2022-11-13T18:33:50.374Z,68.40
2022-11-13T18:35:11.065Z,68.78
2022-11-13T18:36:33.803Z,68.82
2022-11-13T18:37:55.821Z,68.78
2022-11-13T18:39:17.032Z,68.82
2022-11-13T18:40:39.983Z,69.04
2022-11-13T18:42:00.615Z,69.11
2022-11-13T18:43:20.699Z,69.27
2022-11-13T18:44:40.975Z,69.40
2022-11-13T18:46:07.403Z,69.50
2022-11-13T18:47:27.981Z,69.62
2022-11-13T18:48:49.062Z,69.93
2022-11-13T18:50:09.673Z,69.83
2022-11-13T18:51:33.519Z,70.11
2022-11-13T18:52:55.353Z,70.14
2022-11-13T18:54:15.664Z,70.04
2022-11-13T18:55:35.947Z,69.92
2022-11-13T18:56:56.885Z,70.10
2022-11-13T18:58:17.477Z,69.70
2022-11-13T18:59:37.854Z,70.11
2022-11-13T19:01:08.931Z,70.14
2022-11-13T19:02:30.971Z,70.31
2022-11-13T19:04:21.087Z,70.09
2022-11-13T19:05:33.236Z,70.42
2022-11-13T19:06:53.635Z,70.43
2022-11-13T19:08:14.226Z,70.42
2022-11-13T19:09:34.541Z,70.54
2022-11-13T19:10:54.590Z,70.77
2022-11-13T19:12:15.282Z,70.85
2022-11-13T19:13:38.896Z,70.97
2022-11-13T19:14:59.412Z,70.66
2022-11-13T19:16:22.408Z,70.67
2022-11-13T19:17:42.968Z,70.68
2022-11-13T19:19:06.216Z,70.85
2022-11-13T19:20:26.735Z,70.93
2022-11-13T19:21:47.443Z,71.00
2022-11-13T19:23:09.366Z,71.08
2022-11-13T19:24:30.191Z,70.96
2022-11-13T19:25:50.730Z,70.99
2022-11-13T19:27:11.539Z,70.71
2022-11-13T19:28:31.967Z,70.71
2022-11-13T19:29:52.641Z,71.09
2022-11-13T19:31:14.697Z,71.05
2022-11-13T19:32:35.769Z,71.02
2022-11-13T19:34:01.635Z,71.09
2022-11-13T19:35:22.509Z,71.21
2022-11-13T19:36:44.355Z,71.27
2022-11-13T19:38:05.625Z,71.18
2022-11-13T19:39:26.186Z,70.93
2022-11-13T19:40:49.054Z,70.96
2022-11-13T19:42:10.690Z,71.30
2022-11-13T19:43:32.937Z,71.37
2022-11-13T19:44:53.037Z,71.39
2022-11-13T19:46:14.748Z,71.44
2022-11-13T19:47:35.265Z,71.70
2022-11-13T19:48:56.385Z,71.34
2022-11-13T19:50:18.265Z,71.62
2022-11-13T19:51:39.150Z,71.36
2022-11-13T19:52:59.227Z,71.29
2022-11-13T19:54:19.600Z,71.47
2022-11-13T19:55:40.306Z,71.54
2022-11-13T19:57:00.803Z,71.74
2022-11-13T19:58:22.474Z,71.69
2022-11-13T19:59:42.832Z,71.47
2022-11-13T20:01:15.618Z,71.18
2022-11-13T20:02:36.631Z,71.01
2022-11-13T20:03:59.747Z,71.02
2022-11-13T20:05:20.316Z,71.26
2022-11-13T20:06:40.956Z,71.45
2022-11-13T20:08:01.598Z,71.48
2022-11-13T20:09:21.949Z,71.52
2022-11-13T20:10:42.380Z,71.47
2022-11-13T20:12:03.148Z,71.61
2022-11-13T20:13:24.563Z,71.76
2022-11-13T20:14:45.395Z,71.55
2022-11-13T20:16:07.342Z,71.48
2022-11-13T20:17:28.011Z,71.32
2022-11-13T20:18:49.401Z,71.43
2022-11-13T20:20:10.695Z,71.41
2022-11-13T20:21:31.391Z,71.37
2022-11-13T20:22:52.353Z,71.43
2022-11-13T20:24:13.017Z,71.37
2022-11-13T20:25:33.777Z,71.22
2022-11-13T20:26:53.997Z,71.11
2022-11-13T20:28:14.737Z,71.06
2022-11-13T20:29:35.362Z,71.24
2022-11-13T20:31:06.608Z,71.35
2022-11-13T20:32:26.886Z,71.41
2022-11-13T20:33:49.207Z,71.37
2022-11-13T20:35:09.893Z,71.33
2022-11-13T20:36:30.432Z,71.26
2022-11-13T20:37:51.093Z,71.47
2022-11-13T20:39:13.186Z,71.56
2022-11-13T20:40:34.857Z,71.60
2022-11-13T20:41:55.286Z,71.92
2022-11-13T20:43:15.599Z,71.84
2022-11-13T20:44:36.019Z,71.97
2022-11-13T20:46:07.021Z,72.06
2022-11-13T20:47:27.406Z,72.20
2022-11-13T20:48:48.181Z,72.24
2022-11-13T20:50:09.105Z,72.02
2022-11-13T20:51:30.009Z,71.85
2022-11-13T20:52:50.439Z,71.75
2022-11-13T20:54:10.734Z,71.73
2022-11-13T20:55:31.301Z,71.60
2022-11-13T20:56:52.033Z,71.71
2022-11-13T20:58:13.067Z,71.57
2022-11-13T20:59:34.019Z,71.71
2022-11-13T21:01:04.682Z,71.58
2022-11-13T21:02:25.082Z,71.55
2022-11-13T21:03:46.553Z,71.56
2022-11-13T21:05:07.219Z,71.58
2022-11-13T21:06:28.076Z,71.55
2022-11-13T21:07:48.597Z,71.32
2022-11-13T21:09:14.039Z,71.25
2022-11-13T21:10:34.812Z,71.31
2022-11-13T21:11:55.680Z,71.17
2022-11-13T21:13:16.345Z,71.04
2022-11-13T21:14:36.765Z,70.99
2022-11-13T21:15:57.159Z,70.44
2022-11-13T21:17:17.570Z,70.62
2022-11-13T21:18:37.954Z,70.60
2022-11-13T21:19:58.894Z,70.48
2022-11-13T21:21:21.282Z,70.23
2022-11-13T21:22:41.800Z,70.22
2022-11-13T21:24:02.594Z,70.22
2022-11-13T21:25:23.434Z,70.26
2022-11-13T21:26:44.150Z,69.58
2022-11-13T21:28:04.686Z,69.31
2022-11-13T21:29:24.648Z,69.08
2022-11-13T21:30:44.938Z,68.63
2022-11-13T21:32:05.429Z,67.97
2022-11-13T21:33:27.343Z,67.74
2022-11-13T21:34:47.550Z,67.44
2022-11-13T21:36:28.842Z,67.50
2022-11-13T21:37:49.584Z,67.39
2022-11-13T21:39:10.079Z,66.07
2022-11-13T21:40:30.613Z,66.41
2022-11-13T21:41:52.862Z,65.94
2022-11-13T21:43:13.595Z,66.17
2022-11-13T21:44:34.403Z,65.89
2022-11-13T21:45:54.569Z,65.80
2022-11-13T21:47:15.184Z,66.16
2022-11-13T21:48:36.677Z,66.25
2022-11-13T21:49:57.327Z,66.53
2022-11-13T21:51:17.724Z,66.11
2022-11-13T21:52:38.328Z,65.79
2022-11-13T21:53:59.336Z,65.49
2022-11-13T21:55:19.756Z,65.34
2022-11-13T21:56:41.498Z,64.89
2022-11-13T21:58:02.238Z,65.03
2022-11-13T21:59:24.289Z,65.32
2022-11-13T22:00:45.062Z,65.36
2022-11-13T22:02:05.453Z,65.22
2022-11-13T22:03:27.524Z,65.10
2022-11-13T22:04:50.230Z,64.80
2022-11-13T22:06:25.707Z,64.83
2022-11-13T22:07:47.257Z,64.87
2022-11-13T22:09:14.281Z,64.69
2022-11-13T22:10:34.813Z,64.58
2022-11-13T22:11:55.049Z,64.71
2022-11-13T22:13:16.007Z,64.22
2022-11-13T22:14:36.693Z,64.26
2022-11-13T22:15:57.409Z,63.95
2022-11-13T22:17:17.335Z,63.55
2022-11-13T22:18:38.137Z,63.90
2022-11-13T22:19:58.846Z,63.90
2022-11-13T22:21:20.702Z,63.97
2022-11-13T22:22:41.201Z,63.64
2022-11-13T22:24:02.041Z,63.48
2022-11-13T22:25:22.773Z,63.41
2022-11-13T22:26:49.881Z,63.74
2022-11-13T22:28:10.277Z,63.93
2022-11-13T22:29:30.597Z,64.08
2022-11-13T22:30:50.965Z,63.88
2022-11-13T22:32:11.368Z,64.10
2022-11-13T22:33:34.802Z,64.03
2022-11-13T22:34:55.104Z,63.70
2022-11-13T22:36:21.222Z,63.66
2022-11-13T22:37:41.240Z,63.41
2022-11-13T22:39:01.873Z,63.42
2022-11-13T22:40:22.308Z,63.50
2022-11-13T22:41:43.326Z,63.33
2022-11-13T22:43:03.638Z,63.59
2022-11-13T22:44:28.594Z,63.63
2022-11-13T22:46:01.107Z,63.78
2022-11-13T22:47:21.480Z,63.63
2022-11-13T22:48:42.849Z,63.68
2022-11-13T22:50:04.749Z,63.78
2022-11-13T22:51:27.459Z,63.89
2022-11-13T22:52:48.013Z,63.87
2022-11-13T22:54:14.983Z,63.95
2022-11-13T22:55:36.603Z,63.97
2022-11-13T22:57:03.446Z,64.02
2022-11-13T22:58:40.208Z,64.06
2022-11-13T23:00:01.137Z,64.09
2022-11-13T23:01:24.114Z,64.25
2022-11-13T23:02:47.474Z,64.36
2022-11-13T23:04:12.564Z,64.39
2022-11-13T23:05:35.558Z,64.27
2022-11-13T23:06:56.033Z,64.19
2022-11-13T23:08:16.657Z,64.06
2022-11-13T23:09:37.096Z,63.72
2022-11-13T23:10:57.985Z,63.95
2022-11-13T23:12:19.502Z,63.82
2022-11-13T23:13:45.111Z,63.76
2022-11-13T23:15:06.425Z,63.73
2022-11-13T23:16:27.390Z,63.75
2022-11-13T23:17:47.449Z,63.88
2022-11-13T23:19:08.585Z,63.79
2022-11-13T23:20:29.161Z,63.87
2022-11-13T23:21:49.375Z,63.88
2022-11-13T23:23:10.169Z,63.93
2022-11-13T23:24:30.388Z,63.90
2022-11-13T23:25:51.362Z,63.95
2022-11-13T23:27:11.256Z,63.95
2022-11-13T23:28:32.200Z,64.13
2022-11-13T23:29:53.160Z,64.12
2022-11-13T23:31:14.041Z,64.11
2022-11-13T23:32:34.574Z,64.22
2022-11-13T23:33:54.590Z,64.25
2022-11-13T23:35:14.685Z,64.33
2022-11-13T23:36:35.237Z,64.38
2022-11-13T23:37:55.457Z,64.45
2022-11-13T23:39:15.720Z,64.45
2022-11-13T23:40:36.299Z,64.43
2022-11-13T23:41:56.674Z,64.54
2022-11-13T23:43:16.894Z,64.67
2022-11-13T23:44:36.977Z,64.68
2022-11-13T23:45:57.729Z,64.92
2022-11-13T23:47:18.338Z,65.11
2022-11-13T23:48:40.107Z,65.20
2022-11-13T23:50:00.615Z,64.94
2022-11-13T23:51:20.865Z,64.92
2022-11-13T23:52:41.205Z,64.83
2022-11-13T23:54:02.364Z,64.89
2022-11-13T23:55:23.164Z,64.93
2022-11-13T23:56:43.351Z,64.96
2022-11-13T23:58:05.692Z,65.02
2022-11-13T23:59:26.331Z,65.22
